Time;durP1;ratioP1;P1;durP2;ratioP2;P2;SDS_P1;SDS_P2;PMS_P1;PMS_P2;Temp;Humidity;BMP_temperature;BMP_pressure;BME280_temperature;BME280_humidity;BME280_pressure;Samples;Min_cycle;Max_cycle;Signal;HPM_P1;HPM_P2
2023/01/18 00:00:19;;;;;;;59.72;33.45;;;;;;;-0.14;100.00;98728.84;5030797;28;20044;-80
2023/01/18 00:02:46;;;;;;;65.45;32.10;;;;;;;-0.20;100.00;98725.69;5016874;28;20055;-78
2023/01/18 00:05:13;;;;;;;63.60;34.22;;;;;;;-0.22;100.00;98728.00;5028015;28;20060;-78
2023/01/18 00:07:39;;;;;;;60.78;35.15;;;;;;;-0.21;100.00;98723.34;5025933;28;20056;-79
2023/01/18 00:10:06;;;;;;;67.18;36.20;;;;;;;-0.20;100.00;98728.41;5026521;28;20049;-79
2023/01/18 00:12:33;;;;;;;64.47;33.92;;;;;;;-0.17;100.00;98722.22;5024696;28;20056;-80
2023/01/18 00:14:59;;;;;;;57.72;33.03;;;;;;;-0.30;100.00;98729.06;5025151;28;20045;-80
2023/01/18 00:17:26;;;;;;;62.85;34.55;;;;;;;-0.39;100.00;98722.38;5028931;28;20049;-79
2023/01/18 00:19:52;;;;;;;65.47;36.65;;;;;;;-0.45;100.00;98724.66;5025131;28;20111;-80
2023/01/18 00:22:19;;;;;;;61.47;36.88;;;;;;;-0.48;100.00;98725.41;5027666;28;20048;-80
2023/01/18 00:24:45;;;;;;;69.38;38.95;;;;;;;-0.46;100.00;98725.03;5027689;28;20070;-79
2023/01/18 00:27:12;;;;;;;71.45;39.40;;;;;;;-0.46;100.00;98727.75;5025180;28;20045;-78
2023/01/18 00:29:38;;;;;;;68.50;38.72;;;;;;;-0.54;100.00;98734.25;5010640;28;20052;-78
2023/01/18 00:32:05;;;;;;;62.55;35.15;;;;;;;-0.53;100.00;98736.63;5021861;28;20045;-79
2023/01/18 00:34:31;;;;;;;57.50;31.55;;;;;;;-0.50;100.00;98733.13;5027528;28;20055;-78
2023/01/18 00:36:58;;;;;;;58.28;32.50;;;;;;;-0.50;100.00;98727.69;5027277;28;20045;-78
2023/01/18 00:39:24;;;;;;;56.10;32.75;;;;;;;-0.46;100.00;98733.97;5027762;28;20044;-79
2023/01/18 00:44:36;;;;;;;53.45;31.00;;;;;;;-0.48;100.00;98735.47;5019584;28;20059;-79
2023/01/18 00:47:02;;;;;;;61.08;31.30;;;;;;;-0.50;100.00;98744.00;5025219;28;20087;-80
2023/01/18 00:49:29;;;;;;;56.70;32.92;;;;;;;-0.50;100.00;98748.66;5020895;28;20045;-80
2023/01/18 00:51:55;;;;;;;57.97;31.73;;;;;;;-0.52;100.00;98746.31;5023592;28;20068;-80
2023/01/18 00:54:24;;;;;;;55.70;30.88;;;;;;;-0.54;100.00;98743.19;5019379;28;20103;-80
2023/01/18 00:56:50;;;;;;;51.15;29.63;;;;;;;-0.60;100.00;98727.59;5019177;28;20041;-80
2023/01/18 00:59:17;;;;;;;52.83;28.63;;;;;;;-0.53;100.00;98750.19;5025186;28;20145;-79
2023/01/18 01:01:44;;;;;;;53.08;29.70;;;;;;;-0.55;100.00;98749.78;5027171;28;20053;-80
2023/01/18 01:06:55;;;;;;;53.28;29.10;;;;;;;-0.53;100.00;98752.13;5019465;28;20050;-79
2023/01/18 01:09:28;;;;;;;56.55;30.95;;;;;;;-0.52;100.00;98749.03;5024312;28;20049;-79
2023/01/18 01:26:12;;;;;;;56.88;33.03;;;;;;;-0.71;100.00;98753.84;5024219;28;20155;-79
2023/01/18 01:28:38;;;;;;;60.63;33.13;;;;;;;-0.67;100.00;98763.59;5021259;28;20106;-80
2023/01/18 01:31:08;;;;;;;60.65;35.45;;;;;;;-0.68;100.00;98770.19;5029318;28;20787;-80
2023/01/18 01:33:35;;;;;;;62.85;34.72;;;;;;;-0.71;100.00;98764.72;5028028;28;20064;-79
2023/01/18 01:36:06;;;;;;;65.55;33.13;;;;;;;-0.71;100.00;98770.91;5028733;28;20045;-79
2023/01/18 01:38:33;;;;;;;60.95;33.78;;;;;;;-0.80;100.00;98770.44;5022564;28;20577;-80
2023/01/18 01:41:06;;;;;;;58.97;35.25;;;;;;;-0.80;100.00;98772.34;5018894;28;20095;-80
2023/01/18 01:43:42;;;;;;;59.47;33.83;;;;;;;-0.81;100.00;98782.41;5026186;28;20045;-79
2023/01/18 01:46:24;;;;;;;57.25;32.28;;;;;;;-0.81;100.00;98790.56;5022279;28;20960;-79
2023/01/18 01:49:01;;;;;;;64.50;33.78;;;;;;;-0.82;100.00;98785.50;5026202;28;20775;-79
2023/01/18 01:51:28;;;;;;;56.97;33.40;;;;;;;-0.82;100.00;98778.16;5026943;28;20053;-79
2023/01/18 01:53:59;;;;;;;59.70;35.63;;;;;;;-0.83;100.00;98781.22;5027311;28;20048;-80
2023/01/18 01:56:26;;;;;;;61.75;32.60;;;;;;;-0.88;100.00;98784.28;5026077;28;20063;-80
2023/01/18 01:58:57;;;;;;;55.92;32.22;;;;;;;-1.03;100.00;98779.78;4999900;28;20052;-80
2023/01/18 02:01:26;;;;;;;56.88;33.17;;;;;;;-1.19;100.00;98766.41;5008626;28;20053;-79
2023/01/18 02:03:56;;;;;;;59.58;34.60;;;;;;;-1.14;100.00;98776.16;5030711;28;20055;-80
2023/01/18 02:06:30;;;;;;;58.42;34.65;;;;;;;-1.11;100.00;98775.44;5029867;28;20049;-79
2023/01/18 02:09:03;;;;;;;59.72;35.50;;;;;;;-1.15;100.00;98772.66;5030619;28;20757;-80
2023/01/18 02:11:29;;;;;;;66.53;35.58;;;;;;;-1.08;100.00;98782.84;5030599;28;20059;-80
2023/01/18 02:14:01;;;;;;;64.70;35.17;;;;;;;-1.15;100.00;98777.31;5025373;28;20049;-80
2023/01/18 02:16:44;;;;;;;56.63;33.85;;;;;;;-1.19;100.00;98785.38;5031625;28;20775;-80
2023/01/18 02:19:45;;;;;;;63.03;34.42;;;;;;;-1.24;100.00;98793.84;5022072;28;20407;-79
2023/01/18 02:22:56;;;;;;;61.28;34.05;;;;;;;-1.30;100.00;98786.38;5011942;28;20057;-79
2023/01/18 02:25:55;;;;;;;63.35;33.60;;;;;;;-1.38;100.00;98782.75;5028261;28;20992;-80
2023/01/18 02:28:32;;;;;;;60.10;33.67;;;;;;;-1.37;100.00;98787.06;4986094;28;20048;-78
2023/01/18 02:31:12;;;;;;;61.55;34.25;;;;;;;-1.32;100.00;98799.53;5024452;28;20583;-79
2023/01/18 02:34:02;;;;;;;56.45;34.35;;;;;;;-1.30;100.00;98800.72;5042885;28;20040;-79
2023/01/18 02:37:06;;;;;;;59.50;34.65;;;;;;;-1.39;100.00;98794.00;5031958;28;20037;-78
2023/01/18 02:39:58;;;;;;;65.97;34.63;;;;;;;-1.38;100.00;98796.31;5011704;28;20402;-77
2023/01/18 02:48:22;;;;;;;58.65;33.83;;;;;;;-1.50;100.00;98804.69;5049575;28;20438;-77
2023/01/18 02:50:49;;;;;;;59.72;34.72;;;;;;;-1.47;100.00;98806.66;5050537;28;20593;-80
2023/01/18 02:53:16;;;;;;;57.33;33.58;;;;;;;-1.54;100.00;98808.47;5048909;28;20045;-79
2023/01/18 02:55:57;;;;;;;55.00;33.35;;;;;;;-1.50;100.00;98801.97;5049688;28;20052;-79
2023/01/18 02:58:39;;;;;;;55.20;33.20;;;;;;;-1.36;100.00;98804.09;5050261;28;20045;-79
2023/01/18 03:01:27;;;;;;;55.15;32.35;;;;;;;-1.30;100.00;98810.78;5049371;28;20045;-79
2023/01/18 03:03:59;;;;;;;58.25;32.22;;;;;;;-1.29;100.00;98805.00;5048239;28;20055;-78
2023/01/18 03:06:28;;;;;;;57.00;32.67;;;;;;;-1.30;100.00;98810.78;5050269;28;20057;-79
2023/01/18 03:08:57;;;;;;;55.40;31.70;;;;;;;-1.33;100.00;98809.59;5049501;28;20067;-79
2023/01/18 03:11:55;;;;;;;54.33;32.90;;;;;;;-1.33;100.00;98815.03;5051350;28;20049;-78
2023/01/18 03:14:35;;;;;;;60.50;31.77;;;;;;;-1.33;100.00;98798.75;5049419;28;20440;-79
2023/01/18 03:17:20;;;;;;;56.60;31.90;;;;;;;-1.22;100.00;98815.97;5048381;28;20052;-78
2023/01/18 03:20:07;;;;;;;50.88;30.67;;;;;;;-1.18;100.00;98816.78;5044262;28;20045;-78
2023/01/18 03:25:24;;;;;;;57.95;31.83;;;;;;;-1.23;100.00;98819.84;5048909;28;20150;-79
2023/01/18 03:33:42;;;;;;;60.28;33.63;;;;;;;-1.26;100.00;98825.97;5048709;28;20049;-78
2023/01/18 03:36:23;;;;;;;63.53;31.95;;;;;;;-1.29;100.00;98832.13;5032507;28;20041;-79
2023/01/18 03:38:55;;;;;;;53.88;30.17;;;;;;;-1.29;100.00;98840.28;5049644;28;20045;-80
2023/01/18 03:41:28;;;;;;;55.40;30.85;;;;;;;-1.33;100.00;98836.72;5049766;28;20053;-78
2023/01/18 03:43:58;;;;;;;61.95;32.80;;;;;;;-1.33;100.00;98846.78;5030842;28;20060;-79
2023/01/18 03:46:29;;;;;;;54.90;30.13;;;;;;;-1.39;100.00;98832.75;5027953;28;20048;-78
2023/01/18 03:48:56;;;;;;;53.55;31.08;;;;;;;-1.37;100.00;98845.94;5046342;28;20524;-79
2023/01/18 03:51:35;;;;;;;57.50;32.42;;;;;;;-1.39;100.00;98840.88;5046465;28;20095;-79
2023/01/18 03:54:08;;;;;;;59.63;31.10;;;;;;;-1.37;100.00;98835.91;5049145;28;20055;-79
2023/01/18 03:56:46;;;;;;;54.67;32.53;;;;;;;-1.40;100.00;98839.31;5049143;28;20045;-79
2023/01/18 03:59:13;;;;;;;58.72;32.88;;;;;;;-1.36;100.00;98845.59;5048259;28;20045;-79
2023/01/18 04:01:40;;;;;;;53.25;29.80;;;;;;;-1.43;100.00;98845.47;5047678;28;20144;-78
2023/01/18 04:04:06;;;;;;;57.22;32.30;;;;;;;-1.33;100.00;98849.50;5048722;28;20045;-79
2023/01/18 04:06:33;;;;;;;61.28;31.75;;;;;;;-1.33;100.00;98853.00;5031567;28;20045;-79
2023/01/18 04:09:00;;;;;;;54.50;30.38;;;;;;;-1.30;100.00;98862.34;5048596;28;20474;-79
2023/01/18 04:11:26;;;;;;;54.53;30.40;;;;;;;-1.43;100.00;98841.97;5049327;28;20056;-79
2023/01/18 04:13:52;;;;;;;55.88;32.10;;;;;;;-1.38;100.00;98861.44;5048320;28;20045;-79
2023/01/18 04:16:20;;;;;;;55.63;30.55;;;;;;;-1.42;100.00;98855.16;5048593;28;20073;-79
2023/01/18 04:18:47;;;;;;;52.67;30.05;;;;;;;-1.45;100.00;98860.56;5048049;28;20550;-79
2023/01/18 04:21:13;;;;;;;57.30;30.48;;;;;;;-1.43;100.00;98864.47;5030223;28;20049;-79
2023/01/18 04:23:40;;;;;;;56.20;31.30;;;;;;;-1.41;100.00;98869.53;5047680;28;20037;-80
2023/01/18 04:26:06;;;;;;;56.47;30.60;;;;;;;-1.44;100.00;98862.09;5046528;28;20132;-78
2023/01/18 04:28:33;;;;;;;57.38;32.70;;;;;;;-1.44;100.00;98862.91;5047279;28;20045;-78
2023/01/18 04:31:00;;;;;;;57.42;33.28;;;;;;;-1.41;100.00;98877.66;5048532;28;20445;-81
2023/01/18 04:33:26;;;;;;;56.85;30.40;;;;;;;-1.43;100.00;98885.38;5047627;28;20083;-80
2023/01/18 04:35:53;;;;;;;52.63;32.38;;;;;;;-1.42;100.00;98887.72;5047566;28;20052;-79
2023/01/18 04:38:19;;;;;;;66.07;34.00;;;;;;;-1.54;100.00;98871.66;5048014;28;20043;-78
2023/01/18 04:40:46;;;;;;;64.75;34.65;;;;;;;-1.41;100.00;98883.09;5047378;28;20048;-77
2023/01/18 04:43:12;;;;;;;63.72;33.05;;;;;;;-1.41;100.00;98891.22;5048161;28;20049;-79
2023/01/18 04:45:39;;;;;;;55.80;31.40;;;;;;;-1.47;100.00;98885.31;5048417;28;20040;-78
2023/01/18 04:48:06;;;;;;;61.45;31.10;;;;;;;-1.45;100.00;98887.69;5045145;28;20054;-78
2023/01/18 04:50:32;;;;;;;54.65;31.25;;;;;;;-1.46;100.00;98895.03;5048018;28;20056;-77
2023/01/18 04:52:59;;;;;;;92.97;39.47;;;;;;;-1.50;100.00;98888.75;5021282;28;20048;-78
2023/01/18 04:55:26;;;;;;;67.15;34.22;;;;;;;-1.49;100.00;98895.75;5046691;28;20048;-78
2023/01/18 04:57:55;;;;;;;67.25;37.05;;;;;;;-1.52;100.00;98893.75;5047828;28;20399;-78
2023/01/18 05:00:22;;;;;;;60.33;33.40;;;;;;;-1.58;100.00;98884.38;5047385;28;20055;-77
2023/01/18 05:02:49;;;;;;;59.40;33.15;;;;;;;-1.66;100.00;98892.72;5047467;28;20049;-79
2023/01/18 05:05:17;;;;;;;64.65;31.20;;;;;;;-1.66;100.00;98893.50;5048122;28;20049;-79
2023/01/18 05:07:43;;;;;;;55.92;31.10;;;;;;;-1.74;100.00;98891.00;5047382;28;20139;-79
2023/01/18 05:10:10;;;;;;;58.45;32.67;;;;;;;-1.70;100.00;98898.06;5046432;28;20075;-78
2023/01/18 05:12:37;;;;;;;58.75;32.28;;;;;;;-1.69;100.00;98894.22;5047787;28;20041;-79
2023/01/18 05:15:04;;;;;;;54.85;29.25;;;;;;;-1.64;100.00;98901.28;5048120;28;20048;-80
2023/01/18 05:17:33;;;;;;;56.30;28.65;;;;;;;-1.61;100.00;98906.78;5046440;28;20118;-80
2023/01/18 05:20:01;;;;;;;50.47;28.65;;;;;;;-1.60;100.00;98907.53;5047752;28;20048;-80
2023/01/18 05:22:28;;;;;;;52.80;30.00;;;;;;;-1.62;100.00;98899.00;5045693;28;20053;-79
2023/01/18 05:24:54;;;;;;;50.50;27.40;;;;;;;-1.65;100.00;98903.19;5048311;28;20098;-79
2023/01/18 05:27:21;;;;;;;50.92;28.77;;;;;;;-1.64;100.00;98912.13;5047173;28;20051;-79
2023/01/18 05:29:47;;;;;;;49.85;29.52;;;;;;;-1.65;100.00;98914.03;5047197;28;20049;-79
2023/01/18 05:32:14;;;;;;;51.22;27.25;;;;;;;-1.68;100.00;98917.50;5047444;28;20461;-79
2023/01/18 05:34:41;;;;;;;59.80;28.17;;;;;;;-1.70;100.00;98919.78;5046755;28;20060;-78
2023/01/18 05:37:07;;;;;;;51.90;28.35;;;;;;;-1.72;100.00;98918.56;5048280;28;20048;-79
2023/01/18 05:39:34;;;;;;;58.53;30.90;;;;;;;-1.73;100.00;98922.41;5043994;28;20053;-79
2023/01/18 05:42:01;;;;;;;51.15;28.30;;;;;;;-1.76;100.00;98923.91;5031945;28;20045;-80
2023/01/18 05:44:27;;;;;;;53.50;28.25;;;;;;;-1.70;100.00;98930.63;5051669;28;20037;-78
2023/01/18 05:46:54;;;;;;;57.13;29.23;;;;;;;-1.72;100.00;98934.84;5051258;28;20487;-78
2023/01/18 05:49:20;;;;;;;55.92;28.65;;;;;;;-1.68;100.00;98938.38;5051957;28;20492;-81
2023/01/18 05:51:47;;;;;;;52.50;27.92;;;;;;;-1.70;100.00;98943.38;5052447;28;20040;-79
2023/01/18 05:54:14;;;;;;;55.75;28.98;;;;;;;-1.72;100.00;98949.16;5050259;28;20495;-79
2023/01/18 05:56:41;;;;;;;48.92;27.83;;;;;;;-1.78;100.00;98947.91;5052190;28;20045;-79
2023/01/18 05:59:08;;;;;;;50.15;26.83;;;;;;;-1.77;100.00;98954.88;5052959;28;20041;-79
2023/01/18 06:01:34;;;;;;;56.03;29.08;;;;;;;-1.78;100.00;98956.03;5046300;28;20045;-79
2023/01/18 06:04:01;;;;;;;52.60;28.60;;;;;;;-1.80;100.00;98961.00;5034538;28;20392;-79
2023/01/18 06:06:27;;;;;;;56.45;28.77;;;;;;;-1.75;100.00;98973.50;5051942;28;20075;-79
2023/01/18 06:08:54;;;;;;;51.92;28.52;;;;;;;-1.78;100.00;98977.72;5050050;28;20053;-79
2023/01/18 06:11:20;;;;;;;54.58;28.85;;;;;;;-1.80;100.00;98976.47;5050035;28;20049;-79
2023/01/18 06:13:47;;;;;;;54.60;28.73;;;;;;;-1.82;100.00;98970.66;5050192;28;20498;-79
2023/01/18 06:16:13;;;;;;;62.35;29.20;;;;;;;-1.81;100.00;98978.44;5049568;28;20526;-79
2023/01/18 06:18:40;;;;;;;56.00;29.60;;;;;;;-1.81;100.00;98985.75;5051165;28;20181;-79
2023/01/18 06:21:07;;;;;;;57.60;30.65;;;;;;;-1.83;100.00;98991.53;5050455;28;20067;-79
2023/01/18 06:23:34;;;;;;;59.05;31.67;;;;;;;-1.82;100.00;98986.91;5042680;28;20045;-79
2023/01/18 06:26:00;;;;;;;54.45;30.85;;;;;;;-1.85;100.00;98993.06;5047250;28;20087;-79
2023/01/18 06:28:27;;;;;;;62.65;31.65;;;;;;;-1.87;100.00;98993.41;5046968;28;20619;-78
2023/01/18 06:30:56;;;;;;;55.80;30.33;;;;;;;-1.89;100.00;98994.91;5048395;28;20132;-79
2023/01/18 06:33:23;;;;;;;58.42;30.63;;;;;;;-1.93;100.00;98991.34;5047582;28;20064;-79
2023/01/18 06:35:51;;;;;;;55.95;29.83;;;;;;;-1.93;100.00;99000.25;5032777;28;20049;-77
2023/01/18 06:38:17;;;;;;;58.92;30.55;;;;;;;-1.89;100.00;99001.09;5049825;28;20045;-76
2023/01/18 06:40:44;;;;;;;58.22;30.10;;;;;;;-1.87;100.00;99008.88;5048191;28;20045;-77
2023/01/18 06:43:12;;;;;;;56.75;29.52;;;;;;;-1.85;100.00;99009.31;5049354;28;20048;-77
2023/01/18 06:45:40;;;;;;;52.55;30.17;;;;;;;-1.82;100.00;99011.31;5049302;28;20079;-77
2023/01/18 06:48:06;;;;;;;54.72;28.63;;;;;;;-1.81;100.00;99010.97;5049732;28;20083;-77
2023/01/18 06:50:33;;;;;;;57.22;29.83;;;;;;;-1.82;100.00;99012.06;5049520;28;20132;-78
2023/01/18 06:52:59;;;;;;;51.10;27.77;;;;;;;-1.86;100.00;99003.09;5047434;28;20053;-77
2023/01/18 06:55:26;;;;;;;53.78;29.77;;;;;;;-1.80;100.00;99015.22;5048729;28;20061;-77
2023/01/18 06:57:53;;;;;;;49.22;27.27;;;;;;;-1.81;100.00;99018.28;5047804;28;20044;-77
2023/01/18 07:00:21;;;;;;;52.60;28.73;;;;;;;-1.81;100.00;99037.28;5048924;28;20052;-78
2023/01/18 07:02:50;;;;;;;50.33;26.85;;;;;;;-1.81;100.00;99037.28;5049484;28;20084;-79
2023/01/18 07:05:16;;;;;;;49.45;27.08;;;;;;;-1.81;100.00;99039.97;5048378;28;20049;-78
2023/01/18 07:07:44;;;;;;;54.78;26.92;;;;;;;-1.82;100.00;99041.91;5049511;28;20053;-77
2023/01/18 07:10:11;;;;;;;56.83;27.67;;;;;;;-1.89;100.00;99039.03;5050020;28;20052;-79
2023/01/18 07:12:41;;;;;;;50.88;28.63;;;;;;;-1.89;100.00;99038.28;5049274;28;20106;-80
2023/01/18 07:15:08;;;;;;;48.28;28.23;;;;;;;-1.92;100.00;99045.19;5050921;28;20048;-78
2023/01/18 07:17:49;;;;;;;51.42;26.95;;;;;;;-1.86;100.00;99045.69;5029847;28;20555;-77
2023/01/18 07:20:15;;;;;;;53.50;25.58;;;;;;;-1.87;100.00;99058.47;5050761;28;20114;-78
2023/01/18 07:22:42;;;;;;;53.67;28.65;;;;;;;-1.85;100.00;99064.31;5046112;28;20045;-76
2023/01/18 07:25:12;;;;;;;53.00;28.02;;;;;;;-1.85;100.00;99056.19;5048233;28;20052;-77
2023/01/18 07:27:41;;;;;;;50.35;27.45;;;;;;;-1.82;100.00;99073.66;5050699;28;20049;-77
2023/01/18 07:30:11;;;;;;;47.95;26.73;;;;;;;-1.83;100.00;99063.97;5051528;28;20152;-78
2023/01/18 07:32:43;;;;;;;49.08;26.55;;;;;;;-1.82;100.00;99071.72;5040864;28;20049;-77
2023/01/18 07:35:10;;;;;;;49.97;25.50;;;;;;;-1.81;100.00;99077.94;5048052;28;20060;-78
2023/01/18 07:37:37;;;;;;;49.13;26.63;;;;;;;-1.88;100.00;99080.50;5048997;28;20527;-78
2023/01/18 07:40:04;;;;;;;51.92;26.20;;;;;;;-1.84;100.00;99087.56;5049714;28;20063;-78
2023/01/18 07:42:31;;;;;;;49.22;26.50;;;;;;;-1.87;100.00;99073.94;5048052;28;20144;-76
2023/01/18 07:44:57;;;;;;;55.78;25.50;;;;;;;-1.82;100.00;99090.69;5047910;28;20061;-77
2023/01/18 07:47:23;;;;;;;52.28;26.15;;;;;;;-1.87;100.00;99087.47;5046516;28;20053;-78
2023/01/18 07:49:50;;;;;;;55.55;27.13;;;;;;;-1.83;100.00;99086.41;5047869;28;20052;-78
2023/01/18 07:52:16;;;;;;;47.67;24.85;;;;;;;-1.77;100.00;99095.84;5048204;28;20049;-77
2023/01/18 07:54:43;;;;;;;43.88;24.73;;;;;;;-1.79;100.00;99094.66;5046283;28;20533;-77
2023/01/18 07:57:09;;;;;;;53.40;27.92;;;;;;;-1.68;100.00;99104.59;5048279;28;20059;-78
2023/01/18 07:59:38;;;;;;;50.97;27.00;;;;;;;-1.68;100.00;99112.72;5049110;28;20040;-78
2023/01/18 08:02:07;;;;;;;54.05;27.95;;;;;;;-1.69;100.00;99113.84;5030886;28;20047;-77
2023/01/18 08:04:34;;;;;;;56.83;26.88;;;;;;;-1.63;100.00;99114.34;5047494;28;20064;-77
2023/01/18 08:07:00;;;;;;;50.38;28.70;;;;;;;-1.61;100.00;99117.50;5048535;28;20419;-76
2023/01/18 08:09:27;;;;;;;56.15;28.80;;;;;;;-1.64;100.00;99116.28;5048352;28;20052;-78
2023/01/18 08:11:54;;;;;;;47.20;26.13;;;;;;;-1.59;100.00;99117.94;5048602;28;20471;-78
2023/01/18 08:14:20;;;;;;;48.92;25.98;;;;;;;-1.58;100.00;99122.22;5048222;28;20059;-77
2023/01/18 08:16:47;;;;;;;47.35;25.15;;;;;;;-1.51;100.00;99117.72;5047150;28;20049;-77
2023/01/18 08:19:15;;;;;;;52.45;26.60;;;;;;;-1.49;100.00;99118.13;5047664;28;20055;-77
2023/01/18 08:21:43;;;;;;;52.28;25.15;;;;;;;-1.48;100.00;99119.69;5048772;28;20095;-77
2023/01/18 08:24:09;;;;;;;58.63;26.02;;;;;;;-1.40;100.00;99132.28;5047892;28;20059;-78
2023/01/18 08:26:36;;;;;;;53.20;26.75;;;;;;;-1.35;100.00;99137.41;5049483;28;20045;-77
2023/01/18 08:29:03;;;;;;;61.13;25.08;;;;;;;-1.29;100.00;99146.84;5048166;28;20049;-77
2023/01/18 08:31:29;;;;;;;56.53;24.95;;;;;;;-1.32;100.00;99133.22;5049141;28;20067;-77
2023/01/18 08:33:56;;;;;;;62.42;27.63;;;;;;;-1.31;100.00;99149.16;5047323;28;20052;-77
2023/01/18 08:36:24;;;;;;;48.85;24.30;;;;;;;-1.22;100.00;99149.72;5048769;28;20541;-77
2023/01/18 08:38:54;;;;;;;53.50;24.90;;;;;;;-1.18;100.00;99155.22;5031496;28;20045;-78
2023/01/18 08:41:21;;;;;;;61.75;24.05;;;;;;;-1.12;100.00;99159.19;5048384;28;20438;-78
2023/01/18 08:43:49;;;;;;;54.70;26.02;;;;;;;-1.05;100.00;99162.09;5029265;28;20140;-77
2023/01/18 08:46:16;;;;;;;47.47;25.08;;;;;;;-1.03;100.00;99165.22;5045853;28;20053;-77
2023/01/18 08:48:42;;;;;;;52.63;26.15;;;;;;;-0.97;100.00;99170.00;5047145;28;20041;-77
2023/01/18 08:51:09;;;;;;;47.17;25.38;;;;;;;-0.93;100.00;99173.56;5045129;28;20056;-79
2023/01/18 08:53:36;;;;;;;56.45;26.65;;;;;;;-0.85;100.00;99182.63;5046667;28;20049;-77
2023/01/18 08:56:05;;;;;;;51.45;25.95;;;;;;;-0.88;100.00;99184.13;5041946;28;20503;-77
2023/01/18 08:58:32;;;;;;;49.65;26.10;;;;;;;-0.79;100.00;99198.28;5051074;28;20049;-76
2023/01/18 09:00:59;;;;;;;46.17;25.35;;;;;;;-0.77;100.00;99187.06;5046160;28;20056;-76
2023/01/18 09:03:25;;;;;;;53.72;27.63;;;;;;;-0.63;100.00;99192.75;5044380;28;20160;-76
2023/01/18 09:05:52;;;;;;;59.40;26.70;;;;;;;-0.57;100.00;99202.97;5047628;28;20045;-74
2023/01/18 09:08:18;;;;;;;52.38;26.30;;;;;;;-0.48;100.00;99205.44;5045484;28;20049;-75
2023/01/18 09:10:45;;;;;;;58.85;27.83;;;;;;;-0.49;100.00;99210.13;5045865;28;20052;-75
2023/01/18 09:13:11;;;;;;;51.33;26.98;;;;;;;-0.47;100.00;99198.91;5027474;28;20111;-76
2023/01/18 09:15:38;;;;;;;57.65;28.17;;;;;;;-0.35;100.00;99207.66;5044934;28;20044;-77
2023/01/18 09:18:06;;;;;;;50.10;27.75;;;;;;;-0.30;100.00;99207.34;5016873;28;21829;-81
2023/01/18 09:20:34;;;;;;;57.85;32.13;;;;;;;-0.20;100.00;99223.06;5040423;28;20071;-78
2023/01/18 09:23:09;;;;;;;55.28;29.67;;;;;;;-0.13;100.00;99219.69;5035748;28;20057;-77
2023/01/18 09:25:35;;;;;;;54.13;29.10;;;;;;;-0.07;100.00;99219.00;5037827;28;20049;-76
2023/01/18 09:28:04;;;;;;;48.80;26.38;;;;;;;0.03;100.00;99225.00;5036812;28;20442;-78
2023/01/18 09:30:32;;;;;;;48.45;26.45;;;;;;;0.15;100.00;99224.81;5036080;28;20053;-76
2023/01/18 09:32:58;;;;;;;53.60;29.35;;;;;;;0.25;100.00;99237.78;5038492;28;20577;-76
2023/01/18 09:35:26;;;;;;;60.53;31.88;;;;;;;0.31;100.00;99233.63;5046573;28;20168;-75
2023/01/18 09:37:53;;;;;;;51.75;31.05;;;;;;;0.42;100.00;99237.28;5025243;28;20045;-78
2023/01/18 09:40:23;;;;;;;51.40;30.20;;;;;;;0.56;100.00;99238.28;5043476;28;20051;-78
2023/01/18 09:42:51;;;;;;;55.90;32.60;;;;;;;0.59;100.00;99232.13;5046612;28;20571;-77
2023/01/18 09:45:34;;;;;;;59.65;30.45;;;;;;;0.67;100.00;99238.47;5048103;28;20044;-76
2023/01/18 09:48:15;;;;;;;70.93;34.60;;;;;;;0.77;100.00;99254.94;5044927;28;20486;-77
2023/01/18 09:50:42;;;;;;;60.17;36.45;;;;;;;0.87;100.00;99256.25;5049261;28;20400;-79
2023/01/18 09:53:18;;;;;;;57.63;29.13;;;;;;;0.93;100.00;99260.19;5045030;28;20111;-77
2023/01/18 09:55:52;;;;;;;58.80;33.13;;;;;;;1.07;100.00;99257.66;5044102;28;20546;-76
2023/01/18 09:58:31;;;;;;;54.83;31.67;;;;;;;1.06;100.00;99264.28;5027382;28;20107;-76
2023/01/18 10:01:04;;;;;;;53.33;31.63;;;;;;;1.14;100.00;99263.22;5046732;28;20049;-77
2023/01/18 10:03:45;;;;;;;61.80;33.38;;;;;;;1.20;100.00;99264.47;5024879;28;20046;-77
2023/01/18 10:06:20;;;;;;;69.18;34.95;;;;;;;1.38;100.00;99266.25;5039564;28;20045;-77
2023/01/18 10:09:25;;;;;;;61.97;36.13;;;;;;;1.42;100.00;99261.63;5044639;28;20497;-76
2023/01/18 10:11:59;;;;;;;65.18;36.20;;;;;;;1.47;100.00;99261.31;5037458;28;20045;-76
2023/01/18 10:14:38;;;;;;;59.80;32.95;;;;;;;1.54;100.00;99266.84;5046733;28;20156;-77
2023/01/18 10:17:12;;;;;;;62.70;34.97;;;;;;;1.68;100.00;99264.28;5047836;28;20064;-77
2023/01/18 10:19:40;;;;;;;58.83;34.65;;;;;;;1.78;100.00;99268.25;5044303;28;20136;-77
2023/01/18 10:22:32;;;;;;;54.47;30.45;;;;;;;1.82;100.00;99274.56;5045270;28;20072;-78
2023/01/18 10:25:05;;;;;;;54.72;35.63;;;;;;;1.92;100.00;99274.66;5046788;28;20052;-77
2023/01/18 10:27:40;;;;;;;56.53;35.45;;;;;;;2.08;100.00;99277.94;5050109;28;20049;-76
2023/01/18 10:30:34;;;;;;;59.22;34.38;;;;;;;2.14;100.00;99275.66;5050592;28;20045;-78
2023/01/18 10:33:13;;;;;;;59.33;35.22;;;;;;;2.23;100.00;99284.31;5044991;28;20049;-77
2023/01/18 10:35:46;;;;;;;49.47;27.95;;;;;;;2.24;100.00;99285.88;5050303;28;20057;-77
2023/01/18 10:38:18;;;;;;;46.22;21.83;;;;;;;2.30;100.00;99287.13;5045313;28;20049;-77
2023/01/18 10:40:56;;;;;;;48.72;27.10;;;;;;;2.37;100.00;99296.13;5048158;28;20056;-76
2023/01/18 10:43:24;;;;;;;43.65;25.10;;;;;;;2.53;100.00;99291.19;5030144;28;20060;-75
2023/01/18 10:45:52;;;;;;;40.78;23.08;;;;;;;2.66;100.00;99291.69;5050808;28;20055;-74
2023/01/18 10:48:33;;;;;;;48.15;24.55;;;;;;;2.69;100.00;99293.66;5044875;28;20049;-77
2023/01/18 10:51:04;;;;;;;21.55;9.65;;;;;;;2.78;100.00;99288.66;5047422;28;20054;-76
2023/01/18 10:53:36;;;;;;;26.63;13.95;;;;;;;2.93;100.00;99297.75;5047489;28;20099;-74
2023/01/18 10:56:09;;;;;;;22.05;11.38;;;;;;;2.99;100.00;99305.19;5029519;28;20465;-78
2023/01/18 10:58:42;;;;;;;29.13;15.90;;;;;;;3.16;100.00;99296.31;5045156;28;20044;-75
2023/01/18 11:01:51;;;;;;;38.38;21.05;;;;;;;3.30;100.00;99293.66;5046122;28;20060;-76
2023/01/18 11:04:28;;;;;;;27.70;11.15;;;;;;;3.66;100.00;99300.88;5011428;28;20053;-74
2023/01/18 11:07:00;;;;;;;21.83;10.85;;;;;;;4.58;100.00;99310.03;5026316;28;20053;-75
2023/01/18 11:09:48;;;;;;;29.58;12.27;;;;;;;6.20;100.00;99308.44;5050254;28;20569;-74
2023/01/18 11:12:36;;;;;;;23.20;13.15;;;;;;;7.95;100.00;99300.47;5047478;28;20530;-78
2023/01/18 11:15:23;;;;;;;19.25;7.72;;;;;;;7.64;100.00;99296.16;5022027;28;20045;-75
2023/01/18 11:17:56;;;;;;;28.30;13.07;;;;;;;7.72;97.49;99301.16;5037146;28;20754;-77
2023/01/18 11:20:34;;;;;;;19.85;9.35;;;;;;;8.62;91.15;99300.31;5023304;28;20041;-78
2023/01/18 11:23:08;;;;;;;29.45;12.07;;;;;;;9.31;83.70;99308.56;5021129;28;20158;-76
2023/01/18 11:25:49;;;;;;;20.42;10.35;;;;;;;9.41;79.97;99309.56;5025048;28;20917;-79
2023/01/18 11:28:20;;;;;;;23.15;10.63;;;;;;;9.01;78.66;99308.72;5025512;28;20056;-77
2023/01/18 11:30:54;;;;;;;32.40;16.58;;;;;;;9.84;80.67;99307.53;5027375;28;20049;-75
2023/01/18 11:33:23;;;;;;;16.83;7.15;;;;;;;9.68;72.13;99313.78;5025259;28;20049;-76
2023/01/18 11:35:57;;;;;;;21.55;9.48;;;;;;;9.56;70.76;99319.16;5017501;28;20053;-79
2023/01/18 11:38:32;;;;;;;10.57;5.32;;;;;;;10.05;71.18;99312.63;5021314;28;20058;-76
2023/01/18 11:41:20;;;;;;;14.10;6.55;;;;;;;10.57;63.46;99317.00;5029845;28;20048;-77
2023/01/18 11:43:58;;;;;;;30.45;13.50;;;;;;;11.45;64.20;99314.81;5030660;28;20053;-76
2023/01/18 11:46:43;;;;;;;22.40;10.43;;;;;;;11.79;59.46;99311.50;5030261;28;20053;-76
2023/01/18 11:49:41;;;;;;;12.88;4.78;;;;;;;11.93;54.73;99314.66;5032629;28;20045;-77
2023/01/18 11:52:14;;;;;;;12.18;5.85;;;;;;;12.09;52.70;99311.03;5026681;28;20475;-78
2023/01/18 11:54:48;;;;;;;18.02;9.07;;;;;;;11.80;52.53;99318.59;5023778;28;20099;-78
2023/01/18 11:57:15;;;;;;;24.02;9.60;;;;;;;10.44;56.55;99296.00;5029227;28;20063;-77
2023/01/18 11:59:44;;;;;;;13.50;5.72;;;;;;;11.65;55.85;99307.13;5029843;28;20045;-78
2023/01/18 12:02:54;;;;;;;13.10;5.80;;;;;;;11.82;51.95;99316.19;5020798;28;20053;-78